sensor_id;sensor_type;location;lat;lon;timestamp;pressure;altitude;pressure_sealevel;temperature
29423;BMP180;16399;51.686;8.684;2023-03-23T00:00:42;98794.00;;;12.40
29423;BMP180;16399;51.686;8.684;2023-03-23T00:03:51;98807.00;;;12.40
29423;BMP180;16399;51.686;8.684;2023-03-23T00:06:50;98796.00;;;12.50
29423;BMP180;16399;51.686;8.684;2023-03-23T00:09:52;98799.00;;;12.50
29423;BMP180;16399;51.686;8.684;2023-03-23T00:12:55;98800.00;;;12.50
29423;BMP180;16399;51.686;8.684;2023-03-23T00:15:58;98793.00;;;12.50
29423;BMP180;16399;51.686;8.684;2023-03-23T00:19:10;98797.00;;;12.60
29423;BMP180;16399;51.686;8.684;2023-03-23T00:22:16;98785.00;;;12.60
29423;BMP180;16399;51.686;8.684;2023-03-23T00:25:20;98776.00;;;12.60
29423;BMP180;16399;51.686;8.684;2023-03-23T00:28:23;98776.00;;;12.60
29423;BMP180;16399;51.686;8.684;2023-03-23T00:31:26;98765.00;;;12.60
29423;BMP180;16399;51.686;8.684;2023-03-23T00:34:30;98779.00;;;12.70
29423;BMP180;16399;51.686;8.684;2023-03-23T00:37:33;98770.00;;;12.70
29423;BMP180;16399;51.686;8.684;2023-03-23T00:40:36;98768.00;;;12.70
29423;BMP180;16399;51.686;8.684;2023-03-23T00:43:39;98763.00;;;12.70
29423;BMP180;16399;51.686;8.684;2023-03-23T00:46:41;98763.00;;;12.70
29423;BMP180;16399;51.686;8.684;2023-03-23T00:49:45;98774.00;;;12.70
29423;BMP180;16399;51.686;8.684;2023-03-23T00:52:47;98763.00;;;12.80
29423;BMP180;16399;51.686;8.684;2023-03-23T00:55:51;98769.00;;;12.80
29423;BMP180;16399;51.686;8.684;2023-03-23T00:58:53;98762.00;;;12.80
29423;BMP180;16399;51.686;8.684;2023-03-23T01:01:56;98758.00;;;12.80
29423;BMP180;16399;51.686;8.684;2023-03-23T01:04:58;98770.00;;;12.80
29423;BMP180;16399;51.686;8.684;2023-03-23T01:08:01;98764.00;;;12.70
29423;BMP180;16399;51.686;8.684;2023-03-23T01:11:05;98758.00;;;12.70
29423;BMP180;16399;51.686;8.684;2023-03-23T01:14:08;98761.00;;;12.70
29423;BMP180;16399;51.686;8.684;2023-03-23T01:17:10;98744.00;;;12.60
29423;BMP180;16399;51.686;8.684;2023-03-23T01:20:14;98738.00;;;12.60
29423;BMP180;16399;51.686;8.684;2023-03-23T01:23:17;98735.00;;;12.50
29423;BMP180;16399;51.686;8.684;2023-03-23T01:26:22;98731.00;;;12.50
29423;BMP180;16399;51.686;8.684;2023-03-23T01:29:24;98733.00;;;12.50
29423;BMP180;16399;51.686;8.684;2023-03-23T01:32:27;98736.00;;;12.60
29423;BMP180;16399;51.686;8.684;2023-03-23T01:35:29;98739.00;;;12.60
29423;BMP180;16399;51.686;8.684;2023-03-23T01:38:32;98742.00;;;12.60
29423;BMP180;16399;51.686;8.684;2023-03-23T01:41:35;98736.00;;;12.60
29423;BMP180;16399;51.686;8.684;2023-03-23T01:47:43;98721.00;;;12.60
29423;BMP180;16399;51.686;8.684;2023-03-23T01:54:09;98728.00;;;12.50
29423;BMP180;16399;51.686;8.684;2023-03-23T01:57:15;98720.00;;;12.50
29423;BMP180;16399;51.686;8.684;2023-03-23T02:00:18;98716.00;;;12.50
29423;BMP180;16399;51.686;8.684;2023-03-23T02:03:21;98731.00;;;12.50
29423;BMP180;16399;51.686;8.684;2023-03-23T02:06:24;98729.00;;;12.50
29423;BMP180;16399;51.686;8.684;2023-03-23T02:09:27;98720.00;;;12.60
29423;BMP180;16399;51.686;8.684;2023-03-23T02:12:29;98726.00;;;12.60
29423;BMP180;16399;51.686;8.684;2023-03-23T02:15:58;98716.00;;;12.60
29423;BMP180;16399;51.686;8.684;2023-03-23T02:25:47;98707.00;;;12.40
29423;BMP180;16399;51.686;8.684;2023-03-23T02:28:52;98718.00;;;12.40
29423;BMP180;16399;51.686;8.684;2023-03-23T02:32:04;98715.00;;;12.30
29423;BMP180;16399;51.686;8.684;2023-03-23T02:35:12;98712.00;;;12.30
29423;BMP180;16399;51.686;8.684;2023-03-23T02:38:18;98702.00;;;12.30
29423;BMP180;16399;51.686;8.684;2023-03-23T02:41:22;98714.00;;;12.20
29423;BMP180;16399;51.686;8.684;2023-03-23T02:44:28;98725.00;;;12.10
29423;BMP180;16399;51.686;8.684;2023-03-23T02:47:32;98732.00;;;12.00
29423;BMP180;16399;51.686;8.684;2023-03-23T02:50:36;98725.00;;;11.90
29423;BMP180;16399;51.686;8.684;2023-03-23T02:53:41;98742.00;;;11.70
29423;BMP180;16399;51.686;8.684;2023-03-23T02:56:45;98745.00;;;11.60
29423;BMP180;16399;51.686;8.684;2023-03-23T02:59:48;98737.00;;;11.50
29423;BMP180;16399;51.686;8.684;2023-03-23T03:02:52;98747.00;;;11.40
29423;BMP180;16399;51.686;8.684;2023-03-23T03:09:18;98743.00;;;11.20
29423;BMP180;16399;51.686;8.684;2023-03-23T03:12:41;98734.00;;;11.10
29423;BMP180;16399;51.686;8.684;2023-03-23T03:19:12;98683.00;;;10.90
29423;BMP180;16399;51.686;8.684;2023-03-23T03:22:15;98683.00;;;10.90
29423;BMP180;16399;51.686;8.684;2023-03-23T03:25:20;98707.00;;;10.80
29423;BMP180;16399;51.686;8.684;2023-03-23T03:28:25;98697.00;;;10.80
29423;BMP180;16399;51.686;8.684;2023-03-23T03:31:30;98681.00;;;10.70
29423;BMP180;16399;51.686;8.684;2023-03-23T03:34:33;98688.00;;;10.70
29423;BMP180;16399;51.686;8.684;2023-03-23T03:37:37;98674.00;;;10.70
29423;BMP180;16399;51.686;8.684;2023-03-23T03:40:40;98664.00;;;10.70
29423;BMP180;16399;51.686;8.684;2023-03-23T03:43:42;98661.00;;;10.80
29423;BMP180;16399;51.686;8.684;2023-03-23T03:46:44;98658.00;;;10.80
29423;BMP180;16399;51.686;8.684;2023-03-23T03:49:47;98661.00;;;10.80
29423;BMP180;16399;51.686;8.684;2023-03-23T03:52:49;98652.00;;;10.80
29423;BMP180;16399;51.686;8.684;2023-03-23T03:55:51;98647.00;;;10.80
29423;BMP180;16399;51.686;8.684;2023-03-23T03:58:55;98636.00;;;10.90
29423;BMP180;16399;51.686;8.684;2023-03-23T04:01:58;98635.00;;;10.90
29423;BMP180;16399;51.686;8.684;2023-03-23T04:05:00;98638.00;;;10.90
29423;BMP180;16399;51.686;8.684;2023-03-23T04:08:04;98630.00;;;10.90
29423;BMP180;16399;51.686;8.684;2023-03-23T04:11:09;98640.00;;;10.90
29423;BMP180;16399;51.686;8.684;2023-03-23T04:14:11;98638.00;;;10.90
29423;BMP180;16399;51.686;8.684;2023-03-23T04:17:13;98621.00;;;10.90
29423;BMP180;16399;51.686;8.684;2023-03-23T04:20:16;98610.00;;;10.90
29423;BMP180;16399;51.686;8.684;2023-03-23T04:23:20;98640.00;;;11.00
29423;BMP180;16399;51.686;8.684;2023-03-23T04:26:23;98642.00;;;11.00
29423;BMP180;16399;51.686;8.684;2023-03-23T04:29:25;98627.00;;;11.00
29423;BMP180;16399;51.686;8.684;2023-03-23T04:32:28;98641.00;;;11.00
29423;BMP180;16399;51.686;8.684;2023-03-23T04:35:31;98639.00;;;11.00
29423;BMP180;16399;51.686;8.684;2023-03-23T04:38:35;98633.00;;;11.00
29423;BMP180;16399;51.686;8.684;2023-03-23T04:41:37;98636.00;;;11.00
29423;BMP180;16399;51.686;8.684;2023-03-23T04:44:40;98640.00;;;11.00
29423;BMP180;16399;51.686;8.684;2023-03-23T04:47:44;98654.00;;;11.00
29423;BMP180;16399;51.686;8.684;2023-03-23T04:50:48;98656.00;;;11.00
29423;BMP180;16399;51.686;8.684;2023-03-23T04:53:52;98657.00;;;11.00
29423;BMP180;16399;51.686;8.684;2023-03-23T04:56:55;98659.00;;;11.00
29423;BMP180;16399;51.686;8.684;2023-03-23T04:59:57;98646.00;;;11.00
29423;BMP180;16399;51.686;8.684;2023-03-23T05:02:59;98667.00;;;11.10
29423;BMP180;16399;51.686;8.684;2023-03-23T05:06:03;98660.00;;;11.10
29423;BMP180;16399;51.686;8.684;2023-03-23T05:09:05;98666.00;;;11.10
29423;BMP180;16399;51.686;8.684;2023-03-23T05:12:09;98659.00;;;11.10
29423;BMP180;16399;51.686;8.684;2023-03-23T05:15:13;98672.00;;;11.10
29423;BMP180;16399;51.686;8.684;2023-03-23T05:18:16;98672.00;;;11.10
29423;BMP180;16399;51.686;8.684;2023-03-23T05:21:18;98670.00;;;11.10
29423;BMP180;16399;51.686;8.684;2023-03-23T05:24:22;98680.00;;;11.20
29423;BMP180;16399;51.686;8.684;2023-03-23T05:27:25;98676.00;;;11.20
29423;BMP180;16399;51.686;8.684;2023-03-23T05:30:29;98666.00;;;11.20
29423;BMP180;16399;51.686;8.684;2023-03-23T05:33:31;98660.00;;;11.20
29423;BMP180;16399;51.686;8.684;2023-03-23T05:36:33;98658.00;;;11.30
29423;BMP180;16399;51.686;8.684;2023-03-23T05:39:36;98664.00;;;11.30
29423;BMP180;16399;51.686;8.684;2023-03-23T05:42:39;98669.00;;;11.30
29423;BMP180;16399;51.686;8.684;2023-03-23T05:45:42;98667.00;;;11.30
29423;BMP180;16399;51.686;8.684;2023-03-23T05:48:44;98658.00;;;11.40
29423;BMP180;16399;51.686;8.684;2023-03-23T05:51:47;98656.00;;;11.40
29423;BMP180;16399;51.686;8.684;2023-03-23T05:54:51;98659.00;;;11.40
29423;BMP180;16399;51.686;8.684;2023-03-23T05:57:53;98663.00;;;11.50
29423;BMP180;16399;51.686;8.684;2023-03-23T06:00:56;98667.00;;;11.50
29423;BMP180;16399;51.686;8.684;2023-03-23T06:03:58;98658.00;;;11.50
29423;BMP180;16399;51.686;8.684;2023-03-23T06:07:04;98663.00;;;11.60
29423;BMP180;16399;51.686;8.684;2023-03-23T06:10:07;98680.00;;;11.60
29423;BMP180;16399;51.686;8.684;2023-03-23T06:13:10;98669.00;;;11.60
29423;BMP180;16399;51.686;8.684;2023-03-23T06:16:12;98690.00;;;11.60
29423;BMP180;16399;51.686;8.684;2023-03-23T06:19:15;98688.00;;;11.60
29423;BMP180;16399;51.686;8.684;2023-03-23T06:22:18;98676.00;;;11.70
29423;BMP180;16399;51.686;8.684;2023-03-23T06:25:20;98688.00;;;11.70
29423;BMP180;16399;51.686;8.684;2023-03-23T06:28:23;98685.00;;;11.80
29423;BMP180;16399;51.686;8.684;2023-03-23T06:31:27;98689.00;;;11.90
29423;BMP180;16399;51.686;8.684;2023-03-23T06:34:31;98685.00;;;11.90
29423;BMP180;16399;51.686;8.684;2023-03-23T06:37:33;98676.00;;;11.90
29423;BMP180;16399;51.686;8.684;2023-03-23T06:40:36;98680.00;;;12.00
29423;BMP180;16399;51.686;8.684;2023-03-23T06:43:38;98687.00;;;12.00
29423;BMP180;16399;51.686;8.684;2023-03-23T06:46:41;98685.00;;;12.00
29423;BMP180;16399;51.686;8.684;2023-03-23T06:49:44;98693.00;;;12.00
29423;BMP180;16399;51.686;8.684;2023-03-23T06:52:48;98698.00;;;12.10
29423;BMP180;16399;51.686;8.684;2023-03-23T06:55:50;98685.00;;;12.10
29423;BMP180;16399;51.686;8.684;2023-03-23T06:58:53;98677.00;;;12.10
29423;BMP180;16399;51.686;8.684;2023-03-23T07:01:55;98684.00;;;12.20
29423;BMP180;16399;51.686;8.684;2023-03-23T07:04:58;98703.00;;;12.30
29423;BMP180;16399;51.686;8.684;2023-03-23T07:08:01;98702.00;;;12.40
29423;BMP180;16399;51.686;8.684;2023-03-23T07:11:04;98709.00;;;12.50
29423;BMP180;16399;51.686;8.684;2023-03-23T07:14:07;98703.00;;;12.60
29423;BMP180;16399;51.686;8.684;2023-03-23T07:17:09;98699.00;;;12.70
29423;BMP180;16399;51.686;8.684;2023-03-23T07:20:13;98691.00;;;12.70
29423;BMP180;16399;51.686;8.684;2023-03-23T07:23:15;98694.00;;;12.80
29423;BMP180;16399;51.686;8.684;2023-03-23T07:26:18;98697.00;;;12.90
29423;BMP180;16399;51.686;8.684;2023-03-23T07:29:20;98693.00;;;12.90
29423;BMP180;16399;51.686;8.684;2023-03-23T07:32:23;98702.00;;;13.00
29423;BMP180;16399;51.686;8.684;2023-03-23T07:35:26;98700.00;;;13.20
29423;BMP180;16399;51.686;8.684;2023-03-23T07:38:28;98698.00;;;13.30
29423;BMP180;16399;51.686;8.684;2023-03-23T07:41:32;98707.00;;;13.40
29423;BMP180;16399;51.686;8.684;2023-03-23T07:44:34;98704.00;;;13.60
29423;BMP180;16399;51.686;8.684;2023-03-23T07:47:37;98718.00;;;13.80
29423;BMP180;16399;51.686;8.684;2023-03-23T07:50:39;98713.00;;;13.90
29423;BMP180;16399;51.686;8.684;2023-03-23T07:53:44;98714.00;;;14.00
29423;BMP180;16399;51.686;8.684;2023-03-23T07:56:48;98713.00;;;14.00
29423;BMP180;16399;51.686;8.684;2023-03-23T07:59:50;98705.00;;;14.00
29423;BMP180;16399;51.686;8.684;2023-03-23T08:02:56;98720.00;;;13.90
29423;BMP180;16399;51.686;8.684;2023-03-23T08:06:00;98701.00;;;13.90
29423;BMP180;16399;51.686;8.684;2023-03-23T08:09:03;98711.00;;;14.00
29423;BMP180;16399;51.686;8.684;2023-03-23T08:12:07;98710.00;;;14.00
29423;BMP180;16399;51.686;8.684;2023-03-23T08:15:10;98705.00;;;14.00
29423;BMP180;16399;51.686;8.684;2023-03-23T08:18:17;98712.00;;;14.10
29423;BMP180;16399;51.686;8.684;2023-03-23T08:21:19;98706.00;;;14.20
29423;BMP180;16399;51.686;8.684;2023-03-23T08:24:23;98715.00;;;14.30
29423;BMP180;16399;51.686;8.684;2023-03-23T08:27:25;98716.00;;;14.30
29423;BMP180;16399;51.686;8.684;2023-03-23T08:30:28;98719.00;;;14.30
29423;BMP180;16399;51.686;8.684;2023-03-23T08:33:31;98726.00;;;14.30
29423;BMP180;16399;51.686;8.684;2023-03-23T08:36:35;98728.00;;;14.40
29423;BMP180;16399;51.686;8.684;2023-03-23T08:39:39;98720.00;;;14.50
29423;BMP180;16399;51.686;8.684;2023-03-23T08:42:43;98729.00;;;14.60
29423;BMP180;16399;51.686;8.684;2023-03-23T08:45:45;98738.00;;;14.70
29423;BMP180;16399;51.686;8.684;2023-03-23T08:48:49;98725.00;;;14.70
29423;BMP180;16399;51.686;8.684;2023-03-23T08:51:51;98722.00;;;14.70
29423;BMP180;16399;51.686;8.684;2023-03-23T08:54:53;98724.00;;;14.70
29423;BMP180;16399;51.686;8.684;2023-03-23T08:57:56;98727.00;;;14.80
29423;BMP180;16399;51.686;8.684;2023-03-23T09:00:58;98722.00;;;14.80
29423;BMP180;16399;51.686;8.684;2023-03-23T09:04:01;98727.00;;;14.70
29423;BMP180;16399;51.686;8.684;2023-03-23T09:07:03;98727.00;;;14.70
29423;BMP180;16399;51.686;8.684;2023-03-23T09:10:08;98725.00;;;14.80
29423;BMP180;16399;51.686;8.684;2023-03-23T09:13:10;98729.00;;;14.90
29423;BMP180;16399;51.686;8.684;2023-03-23T09:16:13;98728.00;;;14.90
29423;BMP180;16399;51.686;8.684;2023-03-23T09:19:15;98743.00;;;15.00
29423;BMP180;16399;51.686;8.684;2023-03-23T09:22:17;98722.00;;;15.20
29423;BMP180;16399;51.686;8.684;2023-03-23T09:25:23;98720.00;;;15.20
29423;BMP180;16399;51.686;8.684;2023-03-23T09:28:26;98730.00;;;15.40
29423;BMP180;16399;51.686;8.684;2023-03-23T09:31:28;98749.00;;;15.40
29423;BMP180;16399;51.686;8.684;2023-03-23T09:34:32;98750.00;;;15.20
29423;BMP180;16399;51.686;8.684;2023-03-23T09:37:36;98746.00;;;15.20
29423;BMP180;16399;51.686;8.684;2023-03-23T09:40:58;98757.00;;;15.30
29423;BMP180;16399;51.686;8.684;2023-03-23T09:44:29;98762.00;;;15.20
29423;BMP180;16399;51.686;8.684;2023-03-23T09:47:15;98772.00;;;15.30
29423;BMP180;16399;51.686;8.684;2023-03-23T09:50:25;98770.00;;;15.40
29423;BMP180;16399;51.686;8.684;2023-03-23T09:53:31;98769.00;;;15.30
29423;BMP180;16399;51.686;8.684;2023-03-23T09:56:34;98780.00;;;15.30
29423;BMP180;16399;51.686;8.684;2023-03-23T09:59:44;98764.00;;;15.40
29423;BMP180;16399;51.686;8.684;2023-03-23T10:06:12;98771.00;;;15.80
29423;BMP180;16399;51.686;8.684;2023-03-23T10:09:17;98756.00;;;15.90
29423;BMP180;16399;51.686;8.684;2023-03-23T10:12:42;98772.00;;;16.00
29423;BMP180;16399;51.686;8.684;2023-03-23T10:15:46;98778.00;;;16.00
29423;BMP180;16399;51.686;8.684;2023-03-23T10:22:22;98779.00;;;15.70
29423;BMP180;16399;51.686;8.684;2023-03-23T10:25:24;98769.00;;;15.60
29423;BMP180;16399;51.686;8.684;2023-03-23T10:28:39;98766.00;;;15.60
29423;BMP180;16399;51.686;8.684;2023-03-23T10:31:44;98775.00;;;15.50
29423;BMP180;16399;51.686;8.684;2023-03-23T10:35:03;98766.00;;;15.50
29423;BMP180;16399;51.686;8.684;2023-03-23T10:38:09;98767.00;;;15.50
29423;BMP180;16399;51.686;8.684;2023-03-23T10:41:15;98750.00;;;15.60
29423;BMP180;16399;51.686;8.684;2023-03-23T10:44:20;98752.00;;;15.90
29423;BMP180;16399;51.686;8.684;2023-03-23T10:47:23;98761.00;;;16.10
29423;BMP180;16399;51.686;8.684;2023-03-23T10:50:31;98750.00;;;16.30
29423;BMP180;16399;51.686;8.684;2023-03-23T10:53:42;98760.00;;;16.30
29423;BMP180;16399;51.686;8.684;2023-03-23T10:56:45;98755.00;;;16.50
29423;BMP180;16399;51.686;8.684;2023-03-23T10:59:47;98767.00;;;16.70
29423;BMP180;16399;51.686;8.684;2023-03-23T11:03:21;98772.00;;;16.70
29423;BMP180;16399;51.686;8.684;2023-03-23T11:06:27;98777.00;;;17.00
29423;BMP180;16399;51.686;8.684;2023-03-23T11:09:50;98770.00;;;17.00
29423;BMP180;16399;51.686;8.684;2023-03-23T11:12:43;98780.00;;;16.50
29423;BMP180;16399;51.686;8.684;2023-03-23T11:15:46;98768.00;;;16.40
29423;BMP180;16399;51.686;8.684;2023-03-23T11:18:48;98781.00;;;16.20
29423;BMP180;16399;51.686;8.684;2023-03-23T11:21:52;98791.00;;;16.20
29423;BMP180;16399;51.686;8.684;2023-03-23T11:25:00;98793.00;;;16.00
29423;BMP180;16399;51.686;8.684;2023-03-23T11:28:01;98791.00;;;15.80
29423;BMP180;16399;51.686;8.684;2023-03-23T11:31:05;98796.00;;;15.70
29423;BMP180;16399;51.686;8.684;2023-03-23T11:34:15;98787.00;;;15.60
29423;BMP180;16399;51.686;8.684;2023-03-23T11:37:35;98797.00;;;15.60
29423;BMP180;16399;51.686;8.684;2023-03-23T11:40:44;98807.00;;;15.50
29423;BMP180;16399;51.686;8.684;2023-03-23T11:43:45;98805.00;;;15.40
29423;BMP180;16399;51.686;8.684;2023-03-23T11:47:32;98811.00;;;15.20
29423;BMP180;16399;51.686;8.684;2023-03-23T11:53:47;98805.00;;;14.80
29423;BMP180;16399;51.686;8.684;2023-03-23T11:56:49;98817.00;;;14.60
29423;BMP180;16399;51.686;8.684;2023-03-23T11:59:51;98822.00;;;14.40
29423;BMP180;16399;51.686;8.684;2023-03-23T12:03:00;98821.00;;;14.30
29423;BMP180;16399;51.686;8.684;2023-03-23T12:06:10;98843.00;;;14.10
29423;BMP180;16399;51.686;8.684;2023-03-23T12:13:01;98849.00;;;13.40
29423;BMP180;16399;51.686;8.684;2023-03-23T12:16:17;98873.00;;;13.10
29423;BMP180;16399;51.686;8.684;2023-03-23T12:19:37;98865.00;;;12.70
29423;BMP180;16399;51.686;8.684;2023-03-23T12:26:07;98871.00;;;12.40
29423;BMP180;16399;51.686;8.684;2023-03-23T12:39:31;98884.00;;;12.40
29423;BMP180;16399;51.686;8.684;2023-03-23T12:42:41;98878.00;;;12.40
29423;BMP180;16399;51.686;8.684;2023-03-23T12:55:44;98872.00;;;12.60
29423;BMP180;16399;51.686;8.684;2023-03-23T12:58:50;98869.00;;;12.60
29423;BMP180;16399;51.686;8.684;2023-03-23T13:08:36;98881.00;;;12.60
29423;BMP180;16399;51.686;8.684;2023-03-23T13:11:40;98883.00;;;12.60
29423;BMP180;16399;51.686;8.684;2023-03-23T13:15:09;98884.00;;;12.50
29423;BMP180;16399;51.686;8.684;2023-03-23T13:18:27;98883.00;;;12.30
29423;BMP180;16399;51.686;8.684;2023-03-23T13:21:30;98877.00;;;12.20
29423;BMP180;16399;51.686;8.684;2023-03-23T13:24:36;98886.00;;;12.10
29423;BMP180;16399;51.686;8.684;2023-03-23T13:27:38;98885.00;;;12.00
29423;BMP180;16399;51.686;8.684;2023-03-23T13:30:41;98874.00;;;11.80
29423;BMP180;16399;51.686;8.684;2023-03-23T13:33:49;98880.00;;;11.70
29423;BMP180;16399;51.686;8.684;2023-03-23T13:36:58;98891.00;;;11.50
29423;BMP180;16399;51.686;8.684;2023-03-23T13:40:18;98898.00;;;11.50
29423;BMP180;16399;51.686;8.684;2023-03-23T13:43:35;98899.00;;;11.50
29423;BMP180;16399;51.686;8.684;2023-03-23T13:46:38;98895.00;;;11.40
29423;BMP180;16399;51.686;8.684;2023-03-23T13:50:08;98892.00;;;11.30
29423;BMP180;16399;51.686;8.684;2023-03-23T13:53:15;98898.00;;;11.30
29423;BMP180;16399;51.686;8.684;2023-03-23T13:56:36;98903.00;;;11.40
29423;BMP180;16399;51.686;8.684;2023-03-23T13:59:47;98876.00;;;11.50
29423;BMP180;16399;51.686;8.684;2023-03-23T14:02:41;98873.00;;;11.50
29423;BMP180;16399;51.686;8.684;2023-03-23T14:09:04;98875.00;;;11.60
29423;BMP180;16399;51.686;8.684;2023-03-23T14:12:05;98868.00;;;11.60
29423;BMP180;16399;51.686;8.684;2023-03-23T14:15:14;98880.00;;;11.60
29423;BMP180;16399;51.686;8.684;2023-03-23T14:18:16;98881.00;;;11.70
29423;BMP180;16399;51.686;8.684;2023-03-23T14:21:32;98870.00;;;11.70
29423;BMP180;16399;51.686;8.684;2023-03-23T14:24:28;98873.00;;;11.80
29423;BMP180;16399;51.686;8.684;2023-03-23T14:27:31;98871.00;;;11.90
29423;BMP180;16399;51.686;8.684;2023-03-23T14:30:37;98884.00;;;11.90
29423;BMP180;16399;51.686;8.684;2023-03-23T14:33:39;98889.00;;;11.90
29423;BMP180;16399;51.686;8.684;2023-03-23T14:36:43;98903.00;;;11.90
29423;BMP180;16399;51.686;8.684;2023-03-23T14:39:51;98889.00;;;11.80
29423;BMP180;16399;51.686;8.684;2023-03-23T14:42:54;98887.00;;;11.80
29423;BMP180;16399;51.686;8.684;2023-03-23T14:46:00;98883.00;;;11.80
29423;BMP180;16399;51.686;8.684;2023-03-23T14:49:04;98877.00;;;11.90
29423;BMP180;16399;51.686;8.684;2023-03-23T14:52:11;98876.00;;;12.30
29423;BMP180;16399;51.686;8.684;2023-03-23T14:55:19;98862.00;;;12.50
29423;BMP180;16399;51.686;8.684;2023-03-23T14:58:23;98867.00;;;12.60
29423;BMP180;16399;51.686;8.684;2023-03-23T15:01:28;98859.00;;;12.60
29423;BMP180;16399;51.686;8.684;2023-03-23T15:04:31;98865.00;;;12.60
29423;BMP180;16399;51.686;8.684;2023-03-23T15:07:35;98866.00;;;12.50
29423;BMP180;16399;51.686;8.684;2023-03-23T15:10:39;98881.00;;;12.40
29423;BMP180;16399;51.686;8.684;2023-03-23T15:13:49;98887.00;;;12.40
29423;BMP180;16399;51.686;8.684;2023-03-23T15:16:54;98874.00;;;12.30
29423;BMP180;16399;51.686;8.684;2023-03-23T15:20:10;98880.00;;;12.20
29423;BMP180;16399;51.686;8.684;2023-03-23T15:23:07;98873.00;;;12.10
29423;BMP180;16399;51.686;8.684;2023-03-23T15:26:25;98882.00;;;12.10
29423;BMP180;16399;51.686;8.684;2023-03-23T15:29:27;98879.00;;;12.10
29423;BMP180;16399;51.686;8.684;2023-03-23T15:32:36;98875.00;;;12.10
29423;BMP180;16399;51.686;8.684;2023-03-23T15:35:37;98883.00;;;12.10
29423;BMP180;16399;51.686;8.684;2023-03-23T15:38:46;98881.00;;;12.00
29423;BMP180;16399;51.686;8.684;2023-03-23T15:41:48;98867.00;;;12.10
29423;BMP180;16399;51.686;8.684;2023-03-23T15:45:02;98859.00;;;12.10
29423;BMP180;16399;51.686;8.684;2023-03-23T15:48:11;98856.00;;;12.20
29423;BMP180;16399;51.686;8.684;2023-03-23T15:51:14;98858.00;;;12.20
29423;BMP180;16399;51.686;8.684;2023-03-23T15:54:17;98839.00;;;12.20
29423;BMP180;16399;51.686;8.684;2023-03-23T15:57:19;98832.00;;;12.30
29423;BMP180;16399;51.686;8.684;2023-03-23T16:00:23;98835.00;;;12.40
29423;BMP180;16399;51.686;8.684;2023-03-23T16:03:30;98838.00;;;12.30
29423;BMP180;16399;51.686;8.684;2023-03-23T16:06:33;98825.00;;;12.30
29423;BMP180;16399;51.686;8.684;2023-03-23T16:09:36;98810.00;;;12.30
29423;BMP180;16399;51.686;8.684;2023-03-23T16:12:38;98796.00;;;12.40
29423;BMP180;16399;51.686;8.684;2023-03-23T16:15:40;98803.00;;;12.50
29423;BMP180;16399;51.686;8.684;2023-03-23T16:18:43;98805.00;;;12.70
29423;BMP180;16399;51.686;8.684;2023-03-23T16:21:45;98803.00;;;12.70
29423;BMP180;16399;51.686;8.684;2023-03-23T16:24:47;98806.00;;;12.70
29423;BMP180;16399;51.686;8.684;2023-03-23T16:27:50;98814.00;;;12.60
29423;BMP180;16399;51.686;8.684;2023-03-23T16:30:54;98805.00;;;12.50
29423;BMP180;16399;51.686;8.684;2023-03-23T16:33:56;98814.00;;;12.50
29423;BMP180;16399;51.686;8.684;2023-03-23T16:36:58;98801.00;;;12.50
29423;BMP180;16399;51.686;8.684;2023-03-23T16:40:01;98803.00;;;12.40
29423;BMP180;16399;51.686;8.684;2023-03-23T16:43:03;98802.00;;;12.40
29423;BMP180;16399;51.686;8.684;2023-03-23T16:46:06;98795.00;;;12.30
29423;BMP180;16399;51.686;8.684;2023-03-23T16:49:08;98801.00;;;12.30
29423;BMP180;16399;51.686;8.684;2023-03-23T16:52:10;98804.00;;;12.30
29423;BMP180;16399;51.686;8.684;2023-03-23T16:55:14;98805.00;;;12.30
29423;BMP180;16399;51.686;8.684;2023-03-23T16:58:16;98805.00;;;12.20
29423;BMP180;16399;51.686;8.684;2023-03-23T17:01:19;98821.00;;;12.20
29423;BMP180;16399;51.686;8.684;2023-03-23T17:04:21;98828.00;;;12.10
29423;BMP180;16399;51.686;8.684;2023-03-23T17:07:24;98825.00;;;12.10
29423;BMP180;16399;51.686;8.684;2023-03-23T17:10:27;98813.00;;;12.00
29423;BMP180;16399;51.686;8.684;2023-03-23T17:13:30;98802.00;;;12.00
29423;BMP180;16399;51.686;8.684;2023-03-23T17:16:32;98784.00;;;12.00
29423;BMP180;16399;51.686;8.684;2023-03-23T17:19:34;98797.00;;;12.00
29423;BMP180;16399;51.686;8.684;2023-03-23T17:22:38;98805.00;;;12.00
29423;BMP180;16399;51.686;8.684;2023-03-23T17:25:42;98785.00;;;12.00
29423;BMP180;16399;51.686;8.684;2023-03-23T17:28:44;98798.00;;;12.00
29423;BMP180;16399;51.686;8.684;2023-03-23T17:31:47;98798.00;;;11.90
29423;BMP180;16399;51.686;8.684;2023-03-23T17:34:51;98808.00;;;11.90
29423;BMP180;16399;51.686;8.684;2023-03-23T17:37:53;98812.00;;;11.90
29423;BMP180;16399;51.686;8.684;2023-03-23T17:40:57;98833.00;;;11.80
29423;BMP180;16399;51.686;8.684;2023-03-23T17:43:59;98833.00;;;11.70
29423;BMP180;16399;51.686;8.684;2023-03-23T17:47:02;98844.00;;;11.70
29423;BMP180;16399;51.686;8.684;2023-03-23T17:50:05;98845.00;;;11.60
29423;BMP180;16399;51.686;8.684;2023-03-23T17:53:08;98847.00;;;11.50
29423;BMP180;16399;51.686;8.684;2023-03-23T17:56:10;98856.00;;;11.50
29423;BMP180;16399;51.686;8.684;2023-03-23T17:59:13;98857.00;;;11.40
29423;BMP180;16399;51.686;8.684;2023-03-23T18:02:16;98853.00;;;11.30
29423;BMP180;16399;51.686;8.684;2023-03-23T18:05:18;98854.00;;;11.30
29423;BMP180;16399;51.686;8.684;2023-03-23T18:08:21;98862.00;;;11.20
29423;BMP180;16399;51.686;8.684;2023-03-23T18:11:25;98856.00;;;11.20
29423;BMP180;16399;51.686;8.684;2023-03-23T18:14:28;98866.00;;;11.10
29423;BMP180;16399;51.686;8.684;2023-03-23T18:17:30;98863.00;;;11.10
29423;BMP180;16399;51.686;8.684;2023-03-23T18:20:32;98853.00;;;11.00
29423;BMP180;16399;51.686;8.684;2023-03-23T18:23:36;98859.00;;;11.00
29423;BMP180;16399;51.686;8.684;2023-03-23T18:26:38;98858.00;;;10.90
29423;BMP180;16399;51.686;8.684;2023-03-23T18:29:41;98848.00;;;10.90
29423;BMP180;16399;51.686;8.684;2023-03-23T18:32:43;98846.00;;;10.80
29423;BMP180;16399;51.686;8.684;2023-03-23T18:35:46;98853.00;;;10.80
29423;BMP180;16399;51.686;8.684;2023-03-23T18:38:49;98834.00;;;10.70
29423;BMP180;16399;51.686;8.684;2023-03-23T18:41:51;98836.00;;;10.70
29423;BMP180;16399;51.686;8.684;2023-03-23T18:44:53;98827.00;;;10.60
29423;BMP180;16399;51.686;8.684;2023-03-23T18:47:56;98826.00;;;10.60
29423;BMP180;16399;51.686;8.684;2023-03-23T18:50:59;98823.00;;;10.60